sensor_id;sensor_type;location;lat;lon;timestamp;temperature;humidity
68924;DHT22;55961;52.156;20.942;2023-04-15T00:01:21;11.30;70.30
68924;DHT22;55961;52.156;20.942;2023-04-15T00:03:47;11.30;70.50
68924;DHT22;55961;52.156;20.942;2023-04-15T00:06:14;11.30;70.90
68924;DHT22;55961;52.156;20.942;2023-04-15T00:08:40;11.30;71.90
68924;DHT22;55961;52.156;20.942;2023-04-15T00:11:06;11.30;72.40
68924;DHT22;55961;52.156;20.942;2023-04-15T00:13:32;11.30;73.00
68924;DHT22;55961;52.156;20.942;2023-04-15T00:16:01;11.20;72.70
68924;DHT22;55961;52.156;20.942;2023-04-15T00:18:27;11.20;72.70
68924;DHT22;55961;52.156;20.942;2023-04-15T00:20:54;11.20;73.10
68924;DHT22;55961;52.156;20.942;2023-04-15T00:23:20;11.20;73.50
68924;DHT22;55961;52.156;20.942;2023-04-15T00:25:46;11.10;74.30
68924;DHT22;55961;52.156;20.942;2023-04-15T00:28:12;11.10;74.90
68924;DHT22;55961;52.156;20.942;2023-04-15T00:30:39;11.10;75.50
68924;DHT22;55961;52.156;20.942;2023-04-15T00:33:06;11.10;76.00
68924;DHT22;55961;52.156;20.942;2023-04-15T00:35:32;11.00;76.20
68924;DHT22;55961;52.156;20.942;2023-04-15T00:37:58;11.00;76.80
68924;DHT22;55961;52.156;20.942;2023-04-15T00:40:25;11.00;76.60
68924;DHT22;55961;52.156;20.942;2023-04-15T00:42:51;10.90;76.70
68924;DHT22;55961;52.156;20.942;2023-04-15T00:45:17;10.90;77.10
68924;DHT22;55961;52.156;20.942;2023-04-15T00:47:44;10.90;77.40
68924;DHT22;55961;52.156;20.942;2023-04-15T00:50:11;10.90;77.70
68924;DHT22;55961;52.156;20.942;2023-04-15T00:52:37;10.80;78.00
68924;DHT22;55961;52.156;20.942;2023-04-15T00:55:04;10.80;78.00
68924;DHT22;55961;52.156;20.942;2023-04-15T00:57:31;10.80;78.20
68924;DHT22;55961;52.156;20.942;2023-04-15T00:59:58;10.70;78.40
68924;DHT22;55961;52.156;20.942;2023-04-15T01:02:24;10.70;78.10
68924;DHT22;55961;52.156;20.942;2023-04-15T01:04:50;10.70;78.10
68924;DHT22;55961;52.156;20.942;2023-04-15T01:07:17;10.70;77.60
68924;DHT22;55961;52.156;20.942;2023-04-15T01:09:43;10.70;77.40
68924;DHT22;55961;52.156;20.942;2023-04-15T01:12:11;10.70;77.50
68924;DHT22;55961;52.156;20.942;2023-04-15T01:14:38;10.70;77.90
68924;DHT22;55961;52.156;20.942;2023-04-15T01:17:04;10.70;78.20
68924;DHT22;55961;52.156;20.942;2023-04-15T01:19:30;10.60;78.70
68924;DHT22;55961;52.156;20.942;2023-04-15T01:21:56;10.60;78.90
68924;DHT22;55961;52.156;20.942;2023-04-15T01:24:23;10.50;79.30
68924;DHT22;55961;52.156;20.942;2023-04-15T01:26:50;10.50;79.50
68924;DHT22;55961;52.156;20.942;2023-04-15T01:29:16;10.50;79.70
68924;DHT22;55961;52.156;20.942;2023-04-15T01:31:53;10.50;80.10
68924;DHT22;55961;52.156;20.942;2023-04-15T01:34:19;10.50;80.60
68924;DHT22;55961;52.156;20.942;2023-04-15T01:36:46;10.40;81.00
68924;DHT22;55961;52.156;20.942;2023-04-15T01:39:12;10.40;81.40
68924;DHT22;55961;52.156;20.942;2023-04-15T01:41:38;10.40;81.70
68924;DHT22;55961;52.156;20.942;2023-04-15T01:44:05;10.40;82.10
68924;DHT22;55961;52.156;20.942;2023-04-15T01:46:33;10.40;82.40
68924;DHT22;55961;52.156;20.942;2023-04-15T01:48:59;10.30;82.80
68924;DHT22;55961;52.156;20.942;2023-04-15T01:51:25;10.30;83.10
68924;DHT22;55961;52.156;20.942;2023-04-15T01:53:52;10.30;83.50
68924;DHT22;55961;52.156;20.942;2023-04-15T01:56:18;10.30;83.70
68924;DHT22;55961;52.156;20.942;2023-04-15T01:58:44;10.20;84.00
68924;DHT22;55961;52.156;20.942;2023-04-15T02:01:10;10.20;84.30
68924;DHT22;55961;52.156;20.942;2023-04-15T02:03:37;10.20;84.40
68924;DHT22;55961;52.156;20.942;2023-04-15T02:06:04;10.20;84.60
68924;DHT22;55961;52.156;20.942;2023-04-15T02:08:30;10.20;84.70
68924;DHT22;55961;52.156;20.942;2023-04-15T02:10:56;10.20;84.70
68924;DHT22;55961;52.156;20.942;2023-04-15T02:13:22;10.20;84.80
68924;DHT22;55961;52.156;20.942;2023-04-15T02:15:49;10.10;84.70
68924;DHT22;55961;52.156;20.942;2023-04-15T02:18:17;10.10;84.50
68924;DHT22;55961;52.156;20.942;2023-04-15T02:20:43;10.10;85.00
68924;DHT22;55961;52.156;20.942;2023-04-15T02:23:09;10.10;85.00
68924;DHT22;55961;52.156;20.942;2023-04-15T02:25:36;10.10;85.20
68924;DHT22;55961;52.156;20.942;2023-04-15T02:28:04;10.10;85.40
68924;DHT22;55961;52.156;20.942;2023-04-15T02:30:31;10.10;85.60
68924;DHT22;55961;52.156;20.942;2023-04-15T02:32:59;10.10;85.90
68924;DHT22;55961;52.156;20.942;2023-04-15T02:35:25;10.10;86.10
68924;DHT22;55961;52.156;20.942;2023-04-15T02:37:51;10.10;86.10
68924;DHT22;55961;52.156;20.942;2023-04-15T02:40:17;10.10;86.30
68924;DHT22;55961;52.156;20.942;2023-04-15T02:42:43;10.10;86.10
68924;DHT22;55961;52.156;20.942;2023-04-15T02:45:09;10.10;86.10
68924;DHT22;55961;52.156;20.942;2023-04-15T02:47:37;10.00;86.40
68924;DHT22;55961;52.156;20.942;2023-04-15T02:50:10;10.00;86.30
68924;DHT22;55961;52.156;20.942;2023-04-15T02:52:41;10.00;86.00
68924;DHT22;55961;52.156;20.942;2023-04-15T02:55:07;10.00;85.70
68924;DHT22;55961;52.156;20.942;2023-04-15T02:57:34;10.00;85.60
68924;DHT22;55961;52.156;20.942;2023-04-15T03:00:02;10.00;85.70
68924;DHT22;55961;52.156;20.942;2023-04-15T03:02:36;10.00;85.80
68924;DHT22;55961;52.156;20.942;2023-04-15T03:05:02;10.00;86.10
68924;DHT22;55961;52.156;20.942;2023-04-15T03:07:29;10.00;86.30
68924;DHT22;55961;52.156;20.942;2023-04-15T03:09:55;10.00;86.50
68924;DHT22;55961;52.156;20.942;2023-04-15T03:12:21;10.00;86.50
68924;DHT22;55961;52.156;20.942;2023-04-15T03:14:47;10.00;86.70
68924;DHT22;55961;52.156;20.942;2023-04-15T03:17:13;9.90;86.60
68924;DHT22;55961;52.156;20.942;2023-04-15T03:19:39;9.90;86.80
68924;DHT22;55961;52.156;20.942;2023-04-15T03:22:05;9.90;86.70
68924;DHT22;55961;52.156;20.942;2023-04-15T03:24:31;10.00;86.60
68924;DHT22;55961;52.156;20.942;2023-04-15T03:26:57;10.00;86.80
68924;DHT22;55961;52.156;20.942;2023-04-15T03:29:23;9.90;86.80
68924;DHT22;55961;52.156;20.942;2023-04-15T03:31:49;9.90;86.90
68924;DHT22;55961;52.156;20.942;2023-04-15T03:34:15;9.90;86.90
68924;DHT22;55961;52.156;20.942;2023-04-15T03:36:41;9.90;86.90
68924;DHT22;55961;52.156;20.942;2023-04-15T03:39:06;9.90;86.90
68924;DHT22;55961;52.156;20.942;2023-04-15T03:41:33;9.90;87.20
68924;DHT22;55961;52.156;20.942;2023-04-15T03:43:59;9.90;87.00
68924;DHT22;55961;52.156;20.942;2023-04-15T03:46:25;9.90;87.00
68924;DHT22;55961;52.156;20.942;2023-04-15T03:48:51;9.90;87.20
68924;DHT22;55961;52.156;20.942;2023-04-15T03:51:17;9.90;87.10
68924;DHT22;55961;52.156;20.942;2023-04-15T03:53:43;9.90;86.90
68924;DHT22;55961;52.156;20.942;2023-04-15T03:56:09;9.90;86.90
68924;DHT22;55961;52.156;20.942;2023-04-15T03:58:35;9.90;87.00
68924;DHT22;55961;52.156;20.942;2023-04-15T04:01:01;9.90;87.40
68924;DHT22;55961;52.156;20.942;2023-04-15T04:03:27;9.90;87.20
68924;DHT22;55961;52.156;20.942;2023-04-15T04:05:53;9.90;87.20
68924;DHT22;55961;52.156;20.942;2023-04-15T04:08:18;9.90;87.20
68924;DHT22;55961;52.156;20.942;2023-04-15T04:10:46;9.90;87.20
68924;DHT22;55961;52.156;20.942;2023-04-15T04:13:12;9.90;87.40
68924;DHT22;55961;52.156;20.942;2023-04-15T04:15:38;10.00;87.40
68924;DHT22;55961;52.156;20.942;2023-04-15T04:18:04;9.90;87.40
68924;DHT22;55961;52.156;20.942;2023-04-15T04:20:30;9.90;87.30
68924;DHT22;55961;52.156;20.942;2023-04-15T04:22:59;9.90;87.60
68924;DHT22;55961;52.156;20.942;2023-04-15T04:25:25;9.90;87.60
68924;DHT22;55961;52.156;20.942;2023-04-15T04:27:50;9.90;87.50
68924;DHT22;55961;52.156;20.942;2023-04-15T04:30:16;10.00;87.40
68924;DHT22;55961;52.156;20.942;2023-04-15T04:32:42;9.90;87.50
68924;DHT22;55961;52.156;20.942;2023-04-15T04:35:09;9.90;87.70
68924;DHT22;55961;52.156;20.942;2023-04-15T04:37:34;9.90;88.00
68924;DHT22;55961;52.156;20.942;2023-04-15T04:40:00;9.90;87.90
68924;DHT22;55961;52.156;20.942;2023-04-15T04:42:26;9.90;88.10
68924;DHT22;55961;52.156;20.942;2023-04-15T04:44:52;9.90;88.40
68924;DHT22;55961;52.156;20.942;2023-04-15T04:47:18;9.90;88.10
68924;DHT22;55961;52.156;20.942;2023-04-15T04:49:44;9.90;87.80
68924;DHT22;55961;52.156;20.942;2023-04-15T04:52:10;9.90;88.00
68924;DHT22;55961;52.156;20.942;2023-04-15T04:54:36;9.90;87.90
68924;DHT22;55961;52.156;20.942;2023-04-15T04:57:02;9.90;88.00
68924;DHT22;55961;52.156;20.942;2023-04-15T04:59:28;9.90;87.90
68924;DHT22;55961;52.156;20.942;2023-04-15T05:01:54;9.90;88.00
68924;DHT22;55961;52.156;20.942;2023-04-15T05:04:19;9.90;88.20
68924;DHT22;55961;52.156;20.942;2023-04-15T05:06:45;9.90;88.00
68924;DHT22;55961;52.156;20.942;2023-04-15T05:09:11;9.90;88.10
68924;DHT22;55961;52.156;20.942;2023-04-15T05:11:37;9.90;88.10
68924;DHT22;55961;52.156;20.942;2023-04-15T05:14:03;9.90;88.20
68924;DHT22;55961;52.156;20.942;2023-04-15T05:16:29;9.90;88.30
68924;DHT22;55961;52.156;20.942;2023-04-15T05:18:55;9.90;88.30
68924;DHT22;55961;52.156;20.942;2023-04-15T05:21:22;10.00;88.00
68924;DHT22;55961;52.156;20.942;2023-04-15T05:23:48;10.00;88.10
68924;DHT22;55961;52.156;20.942;2023-04-15T05:26:14;9.90;88.50
68924;DHT22;55961;52.156;20.942;2023-04-15T05:28:40;9.90;88.50
68924;DHT22;55961;52.156;20.942;2023-04-15T05:31:06;10.00;88.50
68924;DHT22;55961;52.156;20.942;2023-04-15T05:33:32;10.00;88.70
68924;DHT22;55961;52.156;20.942;2023-04-15T05:35:58;10.00;88.70
68924;DHT22;55961;52.156;20.942;2023-04-15T05:38:24;10.00;88.80
68924;DHT22;55961;52.156;20.942;2023-04-15T05:40:50;9.90;88.80
68924;DHT22;55961;52.156;20.942;2023-04-15T05:43:16;10.00;89.00
68924;DHT22;55961;52.156;20.942;2023-04-15T05:45:42;10.00;88.80
68924;DHT22;55961;52.156;20.942;2023-04-15T05:48:07;10.00;89.00
68924;DHT22;55961;52.156;20.942;2023-04-15T05:50:33;10.00;89.10
68924;DHT22;55961;52.156;20.942;2023-04-15T05:53:00;10.00;89.10
68924;DHT22;55961;52.156;20.942;2023-04-15T05:55:26;10.00;89.30
68924;DHT22;55961;52.156;20.942;2023-04-15T05:57:52;10.00;89.30
68924;DHT22;55961;52.156;20.942;2023-04-15T06:00:18;10.00;89.10
68924;DHT22;55961;52.156;20.942;2023-04-15T06:02:44;10.00;89.20
68924;DHT22;55961;52.156;20.942;2023-04-15T06:05:10;10.00;89.30
68924;DHT22;55961;52.156;20.942;2023-04-15T06:07:37;10.00;89.20
68924;DHT22;55961;52.156;20.942;2023-04-15T06:10:04;10.00;89.40
68924;DHT22;55961;52.156;20.942;2023-04-15T06:12:30;10.00;89.40
68924;DHT22;55961;52.156;20.942;2023-04-15T06:14:56;10.00;89.30
68924;DHT22;55961;52.156;20.942;2023-04-15T06:17:22;10.00;89.30
68924;DHT22;55961;52.156;20.942;2023-04-15T06:19:48;10.00;89.20
68924;DHT22;55961;52.156;20.942;2023-04-15T06:22:16;10.00;89.30
68924;DHT22;55961;52.156;20.942;2023-04-15T06:24:42;10.00;89.30
68924;DHT22;55961;52.156;20.942;2023-04-15T06:27:08;10.00;89.20
68924;DHT22;55961;52.156;20.942;2023-04-15T06:29:34;10.00;89.30
68924;DHT22;55961;52.156;20.942;2023-04-15T06:32:00;10.00;89.20
68924;DHT22;55961;52.156;20.942;2023-04-15T06:34:26;10.00;89.40
68924;DHT22;55961;52.156;20.942;2023-04-15T06:36:52;10.00;89.60
68924;DHT22;55961;52.156;20.942;2023-04-15T06:39:19;10.00;89.40
68924;DHT22;55961;52.156;20.942;2023-04-15T06:41:45;10.00;89.40
68924;DHT22;55961;52.156;20.942;2023-04-15T06:44:11;10.00;89.60
68924;DHT22;55961;52.156;20.942;2023-04-15T06:46:37;10.00;89.40
68924;DHT22;55961;52.156;20.942;2023-04-15T06:49:03;10.00;89.50
68924;DHT22;55961;52.156;20.942;2023-04-15T06:51:29;10.00;89.60
68924;DHT22;55961;52.156;20.942;2023-04-15T06:53:56;10.00;89.60
68924;DHT22;55961;52.156;20.942;2023-04-15T06:56:22;10.00;89.80
68924;DHT22;55961;52.156;20.942;2023-04-15T06:58:48;10.00;89.90
68924;DHT22;55961;52.156;20.942;2023-04-15T07:01:14;10.00;89.60
68924;DHT22;55961;52.156;20.942;2023-04-15T07:03:40;10.10;89.80
68924;DHT22;55961;52.156;20.942;2023-04-15T07:06:06;10.10;89.40
68924;DHT22;55961;52.156;20.942;2023-04-15T07:08:33;10.10;89.50
68924;DHT22;55961;52.156;20.942;2023-04-15T07:10:59;10.10;89.40
68924;DHT22;55961;52.156;20.942;2023-04-15T07:13:26;10.10;89.60
68924;DHT22;55961;52.156;20.942;2023-04-15T07:15:52;10.00;89.60
68924;DHT22;55961;52.156;20.942;2023-04-15T07:18:18;10.00;89.70
68924;DHT22;55961;52.156;20.942;2023-04-15T07:20:44;10.00;89.80
68924;DHT22;55961;52.156;20.942;2023-04-15T07:23:10;10.00;89.70
68924;DHT22;55961;52.156;20.942;2023-04-15T07:25:35;10.10;89.90
68924;DHT22;55961;52.156;20.942;2023-04-15T07:28:01;10.10;90.10
68924;DHT22;55961;52.156;20.942;2023-04-15T07:30:27;10.10;90.20
68924;DHT22;55961;52.156;20.942;2023-04-15T07:32:54;10.10;90.20
68924;DHT22;55961;52.156;20.942;2023-04-15T07:35:20;10.10;90.20
68924;DHT22;55961;52.156;20.942;2023-04-15T07:37:47;10.10;90.10
68924;DHT22;55961;52.156;20.942;2023-04-15T07:40:13;10.10;89.60
68924;DHT22;55961;52.156;20.942;2023-04-15T07:42:40;10.10;89.30
68924;DHT22;55961;52.156;20.942;2023-04-15T07:45:07;10.20;89.40
68924;DHT22;55961;52.156;20.942;2023-04-15T07:47:34;10.10;89.40
68924;DHT22;55961;52.156;20.942;2023-04-15T07:49:59;10.20;89.40
68924;DHT22;55961;52.156;20.942;2023-04-15T07:52:27;10.10;89.60
68924;DHT22;55961;52.156;20.942;2023-04-15T07:54:54;10.20;89.40
68924;DHT22;55961;52.156;20.942;2023-04-15T07:57:27;10.20;89.50
68924;DHT22;55961;52.156;20.942;2023-04-15T07:59:52;10.20;89.70
68924;DHT22;55961;52.156;20.942;2023-04-15T08:02:18;10.20;89.70
68924;DHT22;55961;52.156;20.942;2023-04-15T08:04:44;10.20;89.50
68924;DHT22;55961;52.156;20.942;2023-04-15T08:07:10;10.20;89.70
68924;DHT22;55961;52.156;20.942;2023-04-15T08:09:36;10.20;89.70
68924;DHT22;55961;52.156;20.942;2023-04-15T08:12:02;10.20;89.70
68924;DHT22;55961;52.156;20.942;2023-04-15T08:14:28;10.20;89.70
68924;DHT22;55961;52.156;20.942;2023-04-15T08:16:54;10.20;89.70
68924;DHT22;55961;52.156;20.942;2023-04-15T08:19:20;10.20;89.80
68924;DHT22;55961;52.156;20.942;2023-04-15T08:21:46;10.20;89.80
68924;DHT22;55961;52.156;20.942;2023-04-15T08:24:12;10.20;89.90
68924;DHT22;55961;52.156;20.942;2023-04-15T08:26:38;10.20;90.00
68924;DHT22;55961;52.156;20.942;2023-04-15T08:29:03;10.20;90.10
68924;DHT22;55961;52.156;20.942;2023-04-15T08:31:29;10.30;90.10
68924;DHT22;55961;52.156;20.942;2023-04-15T08:33:56;10.30;90.00
68924;DHT22;55961;52.156;20.942;2023-04-15T08:36:22;10.30;90.40
68924;DHT22;55961;52.156;20.942;2023-04-15T08:38:48;10.30;90.40
68924;DHT22;55961;52.156;20.942;2023-04-15T08:41:19;10.30;90.40
68924;DHT22;55961;52.156;20.942;2023-04-15T08:43:57;10.40;90.30
68924;DHT22;55961;52.156;20.942;2023-04-15T08:46:26;10.40;90.60
68924;DHT22;55961;52.156;20.942;2023-04-15T08:48:56;10.40;90.70
68924;DHT22;55961;52.156;20.942;2023-04-15T08:51:22;10.50;90.50
68924;DHT22;55961;52.156;20.942;2023-04-15T08:53:48;10.50;89.90
68924;DHT22;55961;52.156;20.942;2023-04-15T08:56:15;10.50;90.10
68924;DHT22;55961;52.156;20.942;2023-04-15T08:58:45;10.50;90.30
68924;DHT22;55961;52.156;20.942;2023-04-15T09:01:12;10.60;90.10
68924;DHT22;55961;52.156;20.942;2023-04-15T09:03:39;10.60;89.70
68924;DHT22;55961;52.156;20.942;2023-04-15T09:06:05;10.60;89.40
68924;DHT22;55961;52.156;20.942;2023-04-15T09:08:32;10.70;89.00
68924;DHT22;55961;52.156;20.942;2023-04-15T09:11:00;10.70;89.20
68924;DHT22;55961;52.156;20.942;2023-04-15T09:13:26;10.70;89.00
68924;DHT22;55961;52.156;20.942;2023-04-15T09:15:52;10.70;88.30
68924;DHT22;55961;52.156;20.942;2023-04-15T09:18:31;10.70;88.60
68924;DHT22;55961;52.156;20.942;2023-04-15T09:21:08;10.70;88.80
68924;DHT22;55961;52.156;20.942;2023-04-15T09:23:40;10.70;88.90
68924;DHT22;55961;52.156;20.942;2023-04-15T09:26:07;10.70;89.30
68924;DHT22;55961;52.156;20.942;2023-04-15T09:28:33;10.70;89.10
68924;DHT22;55961;52.156;20.942;2023-04-15T09:31:05;10.70;89.00
68924;DHT22;55961;52.156;20.942;2023-04-15T09:33:31;10.70;89.00
68924;DHT22;55961;52.156;20.942;2023-04-15T09:36:01;10.70;89.20
68924;DHT22;55961;52.156;20.942;2023-04-15T09:38:28;10.80;89.30
68924;DHT22;55961;52.156;20.942;2023-04-15T09:40:54;10.80;89.60
68924;DHT22;55961;52.156;20.942;2023-04-15T09:43:20;10.80;89.40
68924;DHT22;55961;52.156;20.942;2023-04-15T09:45:51;10.80;89.50
68924;DHT22;55961;52.156;20.942;2023-04-15T09:48:22;10.80;89.70
68924;DHT22;55961;52.156;20.942;2023-04-15T09:50:49;10.80;89.60
68924;DHT22;55961;52.156;20.942;2023-04-15T09:53:17;10.80;89.80
68924;DHT22;55961;52.156;20.942;2023-04-15T09:55:51;10.80;90.30
68924;DHT22;55961;52.156;20.942;2023-04-15T09:58:30;10.80;90.00
68924;DHT22;55961;52.156;20.942;2023-04-15T10:00:58;10.90;89.40
68924;DHT22;55961;52.156;20.942;2023-04-15T10:03:26;10.90;89.70
68924;DHT22;55961;52.156;20.942;2023-04-15T10:05:55;10.90;89.80
68924;DHT22;55961;52.156;20.942;2023-04-15T10:08:23;10.90;89.40
68924;DHT22;55961;52.156;20.942;2023-04-15T10:10:53;10.90;89.50
68924;DHT22;55961;52.156;20.942;2023-04-15T10:13:21;10.90;89.50
68924;DHT22;55961;52.156;20.942;2023-04-15T10:15:50;11.00;89.50
68924;DHT22;55961;52.156;20.942;2023-04-15T10:18:19;11.00;89.40
68924;DHT22;55961;52.156;20.942;2023-04-15T10:20:47;11.00;89.60
68924;DHT22;55961;52.156;20.942;2023-04-15T10:23:14;11.00;90.20
68924;DHT22;55961;52.156;20.942;2023-04-15T10:25:41;11.10;89.50
68924;DHT22;55961;52.156;20.942;2023-04-15T10:28:07;11.10;89.40
68924;DHT22;55961;52.156;20.942;2023-04-15T10:30:34;11.10;89.40
68924;DHT22;55961;52.156;20.942;2023-04-15T10:33:01;11.10;89.60
68924;DHT22;55961;52.156;20.942;2023-04-15T10:35:29;11.10;89.30
68924;DHT22;55961;52.156;20.942;2023-04-15T10:37:55;11.20;89.40
68924;DHT22;55961;52.156;20.942;2023-04-15T10:40:28;11.20;88.80
68924;DHT22;55961;52.156;20.942;2023-04-15T10:43:01;11.20;88.60
68924;DHT22;55961;52.156;20.942;2023-04-15T10:45:40;11.20;88.80
68924;DHT22;55961;52.156;20.942;2023-04-15T10:48:09;11.20;89.20
68924;DHT22;55961;52.156;20.942;2023-04-15T10:50:36;11.20;89.00
68924;DHT22;55961;52.156;20.942;2023-04-15T10:53:02;11.20;89.00
68924;DHT22;55961;52.156;20.942;2023-04-15T10:55:33;11.20;89.00
68924;DHT22;55961;52.156;20.942;2023-04-15T10:58:00;11.20;88.90
68924;DHT22;55961;52.156;20.942;2023-04-15T11:00:31;11.20;89.20
68924;DHT22;55961;52.156;20.942;2023-04-15T11:03:05;11.20;89.80
68924;DHT22;55961;52.156;20.942;2023-04-15T11:08:04;11.20;89.50
68924;DHT22;55961;52.156;20.942;2023-04-15T11:12:58;11.30;89.90
68924;DHT22;55961;52.156;20.942;2023-04-15T11:18:22;11.30;88.80
68924;DHT22;55961;52.156;20.942;2023-04-15T11:20:54;11.30;88.30
68924;DHT22;55961;52.156;20.942;2023-04-15T11:23:43;11.40;88.30
68924;DHT22;55961;52.156;20.942;2023-04-15T11:26:12;11.30;88.20
68924;DHT22;55961;52.156;20.942;2023-04-15T11:28:42;11.40;88.20
68924;DHT22;55961;52.156;20.942;2023-04-15T11:31:11;11.40;88.50
68924;DHT22;55961;52.156;20.942;2023-04-15T11:33:59;11.40;89.10
68924;DHT22;55961;52.156;20.942;2023-04-15T11:36:30;11.50;89.40
68924;DHT22;55961;52.156;20.942;2023-04-15T11:38:59;11.50;88.80
68924;DHT22;55961;52.156;20.942;2023-04-15T11:41:25;11.50;87.20
68924;DHT22;55961;52.156;20.942;2023-04-15T11:43:51;11.60;87.20
68924;DHT22;55961;52.156;20.942;2023-04-15T11:46:18;11.60;87.10
68924;DHT22;55961;52.156;20.942;2023-04-15T11:48:45;11.70;87.00
68924;DHT22;55961;52.156;20.942;2023-04-15T11:51:12;11.70;86.20
68924;DHT22;55961;52.156;20.942;2023-04-15T11:53:40;11.80;84.80
68924;DHT22;55961;52.156;20.942;2023-04-15T11:56:07;11.80;84.60
68924;DHT22;55961;52.156;20.942;2023-04-15T11:58:35;11.90;84.70
68924;DHT22;55961;52.156;20.942;2023-04-15T12:01:05;11.90;84.90
68924;DHT22;55961;52.156;20.942;2023-04-15T12:03:37;11.90;84.30
68924;DHT22;55961;52.156;20.942;2023-04-15T12:08:57;12.00;83.50
68924;DHT22;55961;52.156;20.942;2023-04-15T12:11:30;12.00;83.80
68924;DHT22;55961;52.156;20.942;2023-04-15T12:14:01;12.00;84.10
68924;DHT22;55961;52.156;20.942;2023-04-15T12:16:28;12.00;84.00
68924;DHT22;55961;52.156;20.942;2023-04-15T12:18:55;12.00;84.00
68924;DHT22;55961;52.156;20.942;2023-04-15T12:21:24;12.00;83.50
68924;DHT22;55961;52.156;20.942;2023-04-15T12:23:55;12.00;82.60
68924;DHT22;55961;52.156;20.942;2023-04-15T12:29:01;12.10;82.80
68924;DHT22;55961;52.156;20.942;2023-04-15T12:31:27;12.10;81.90
68924;DHT22;55961;52.156;20.942;2023-04-15T12:33:58;12.20;81.00
68924;DHT22;55961;52.156;20.942;2023-04-15T12:36:24;12.20;80.70
68924;DHT22;55961;52.156;20.942;2023-04-15T12:38:50;12.20;81.20
68924;DHT22;55961;52.156;20.942;2023-04-15T12:41:16;12.30;80.60
68924;DHT22;55961;52.156;20.942;2023-04-15T12:43:44;12.30;80.80
68924;DHT22;55961;52.156;20.942;2023-04-15T12:46:12;12.30;80.60
68924;DHT22;55961;52.156;20.942;2023-04-15T12:48:39;12.40;80.10
68924;DHT22;55961;52.156;20.942;2023-04-15T12:51:05;12.40;81.10
68924;DHT22;55961;52.156;20.942;2023-04-15T12:53:31;12.40;81.20
68924;DHT22;55961;52.156;20.942;2023-04-15T12:55:57;12.50;80.00
68924;DHT22;55961;52.156;20.942;2023-04-15T12:58:22;12.50;80.50
68924;DHT22;55961;52.156;20.942;2023-04-15T13:00:49;12.50;80.20
68924;DHT22;55961;52.156;20.942;2023-04-15T13:03:15;12.60;80.10
68924;DHT22;55961;52.156;20.942;2023-04-15T13:05:41;12.60;79.50
68924;DHT22;55961;52.156;20.942;2023-04-15T13:08:07;12.70;79.40
68924;DHT22;55961;52.156;20.942;2023-04-15T13:10:34;12.70;76.70
68924;DHT22;55961;52.156;20.942;2023-04-15T13:13:01;12.70;75.50
68924;DHT22;55961;52.156;20.942;2023-04-15T13:15:28;12.80;75.90
68924;DHT22;55961;52.156;20.942;2023-04-15T13:17:54;12.80;76.10
68924;DHT22;55961;52.156;20.942;2023-04-15T13:20:20;12.80;76.70
68924;DHT22;55961;52.156;20.942;2023-04-15T13:22:45;12.90;77.10
68924;DHT22;55961;52.156;20.942;2023-04-15T13:25:11;12.90;77.30
68924;DHT22;55961;52.156;20.942;2023-04-15T13:27:37;12.90;77.00
68924;DHT22;55961;52.156;20.942;2023-04-15T13:30:04;12.90;75.00
68924;DHT22;55961;52.156;20.942;2023-04-15T13:32:30;12.90;75.10
68924;DHT22;55961;52.156;20.942;2023-04-15T13:34:56;12.90;74.60
68924;DHT22;55961;52.156;20.942;2023-04-15T13:37:26;12.90;75.10
68924;DHT22;55961;52.156;20.942;2023-04-15T13:39:53;13.00;75.30
68924;DHT22;55961;52.156;20.942;2023-04-15T13:42:19;13.00;75.50
68924;DHT22;55961;52.156;20.942;2023-04-15T13:44:45;13.10;75.00
68924;DHT22;55961;52.156;20.942;2023-04-15T13:47:11;13.10;74.10
68924;DHT22;55961;52.156;20.942;2023-04-15T13:49:39;13.10;73.90
68924;DHT22;55961;52.156;20.942;2023-04-15T13:52:05;13.20;73.90
68924;DHT22;55961;52.156;20.942;2023-04-15T13:54:32;13.10;73.60
68924;DHT22;55961;52.156;20.942;2023-04-15T13:56:57;13.10;73.30
68924;DHT22;55961;52.156;20.942;2023-04-15T13:59:23;13.10;74.00
68924;DHT22;55961;52.156;20.942;2023-04-15T14:01:49;13.10;73.50
68924;DHT22;55961;52.156;20.942;2023-04-15T14:04:15;13.10;74.30
68924;DHT22;55961;52.156;20.942;2023-04-15T14:06:41;13.10;74.90
68924;DHT22;55961;52.156;20.942;2023-04-15T14:09:07;13.10;75.30
68924;DHT22;55961;52.156;20.942;2023-04-15T14:11:33;13.10;75.40
68924;DHT22;55961;52.156;20.942;2023-04-15T14:14:01;13.10;75.50
68924;DHT22;55961;52.156;20.942;2023-04-15T14:16:27;13.10;75.60
68924;DHT22;55961;52.156;20.942;2023-04-15T14:18:53;13.20;75.40
68924;DHT22;55961;52.156;20.942;2023-04-15T14:21:19;13.20;75.80
68924;DHT22;55961;52.156;20.942;2023-04-15T14:23:45;13.20;75.70
68924;DHT22;55961;52.156;20.942;2023-04-15T14:26:11;13.30;75.00
68924;DHT22;55961;52.156;20.942;2023-04-15T14:28:38;13.30;74.90
68924;DHT22;55961;52.156;20.942;2023-04-15T14:31:04;13.40;74.10
68924;DHT22;55961;52.156;20.942;2023-04-15T14:33:31;13.40;74.10
68924;DHT22;55961;52.156;20.942;2023-04-15T14:35:56;13.40;75.00
68924;DHT22;55961;52.156;20.942;2023-04-15T14:38:22;13.50;74.10
68924;DHT22;55961;52.156;20.942;2023-04-15T14:40:48;13.50;74.00
68924;DHT22;55961;52.156;20.942;2023-04-15T14:43:14;13.60;72.80
68924;DHT22;55961;52.156;20.942;2023-04-15T14:45:40;13.60;73.70
68924;DHT22;55961;52.156;20.942;2023-04-15T14:48:06;13.60;73.40
68924;DHT22;55961;52.156;20.942;2023-04-15T14:50:34;13.60;73.40
68924;DHT22;55961;52.156;20.942;2023-04-15T14:53:00;13.60;73.40
68924;DHT22;55961;52.156;20.942;2023-04-15T14:55:26;13.60;73.20
68924;DHT22;55961;52.156;20.942;2023-04-15T14:57:52;13.60;72.40
68924;DHT22;55961;52.156;20.942;2023-04-15T15:00:18;13.60;72.40
68924;DHT22;55961;52.156;20.942;2023-04-15T15:02:44;13.60;72.90
68924;DHT22;55961;52.156;20.942;2023-04-15T15:05:12;13.60;73.30
68924;DHT22;55961;52.156;20.942;2023-04-15T15:07:39;13.60;74.40
68924;DHT22;55961;52.156;20.942;2023-04-15T15:10:07;13.70;74.90
68924;DHT22;55961;52.156;20.942;2023-04-15T15:12:33;13.80;74.80
68924;DHT22;55961;52.156;20.942;2023-04-15T15:15:01;13.90;73.60
68924;DHT22;55961;52.156;20.942;2023-04-15T15:17:27;14.00;73.60
68924;DHT22;55961;52.156;20.942;2023-04-15T15:19:53;14.00;73.00
68924;DHT22;55961;52.156;20.942;2023-04-15T15:22:19;14.10;71.30
68924;DHT22;55961;52.156;20.942;2023-04-15T15:24:44;14.10;70.30
68924;DHT22;55961;52.156;20.942;2023-04-15T15:27:11;14.10;70.60
68924;DHT22;55961;52.156;20.942;2023-04-15T15:29:37;14.10;70.10